LIPE/BLQ METAR and TAF weather

Enter ICAO airport designator
Station Type Date Time Source
LIPE METAR 2020/09/19 23:50 UTC NOAA

LIPE 192350Z AUTO 19007KT 9999 NCD 18/14 Q1017


Station Type Date Time Source
LIPE Decoded METAR 2020/09/19 23:50 UTC NOAA

Bologna / Borgo Panigale, Italy (LIPE) 44-32N 011-18E 49M
Sep 19, 2020 - 07:50 PM EDT / 2020.09.19 2350 UTC
Wind: from the S (190 degrees) at 8 MPH (7 KT):0
Visibility: greater than 7 mile(s):0
Temperature: 64 F (18 C)
Dew Point: 57 F (14 C)
Relative Humidity: 77%
Pressure (altimeter): 30.03 in. Hg (1017 hPa)
ob: LIPE 192350Z AUTO 19007KT 9999 NCD 18/14 Q1017
cycle: 0

Station Type Date Time Source
LIPE TAF 2020/09/11 00:25 UTC NOAA

TAF LIPE 110518Z 1100/1124 CNL

Example: see airport list